createdAt,value
2022-08-12T00:00:47.518Z,31.50
2022-08-12T00:03:33.179Z,31.40
2022-08-12T00:06:20.634Z,31.40
2022-08-12T00:09:06.000Z,31.30
2022-08-12T00:11:51.257Z,31.30
2022-08-12T00:14:36.915Z,31.30
2022-08-12T00:17:23.372Z,31.20
2022-08-12T00:20:09.160Z,31.20
2022-08-12T00:22:59.169Z,31.20
2022-08-12T00:26:20.636Z,31.10
2022-08-12T00:29:00.409Z,31.10
2022-08-12T00:31:46.006Z,31.00
2022-08-12T00:34:32.391Z,31.00
2022-08-12T00:37:17.645Z,30.90
2022-08-12T00:40:11.349Z,30.90
2022-08-12T00:42:39.222Z,30.90
2022-08-12T00:45:08.249Z,30.80
2022-08-12T00:47:36.105Z,30.80
2022-08-12T00:50:04.685Z,30.70
2022-08-12T00:52:32.720Z,30.70
2022-08-12T00:55:02.936Z,30.70
2022-08-12T00:57:31.691Z,30.70
2022-08-12T01:00:01.497Z,30.70
2022-08-12T01:02:30.995Z,30.70
2022-08-12T01:05:17.725Z,30.60
2022-08-12T01:08:03.613Z,30.60
2022-08-12T01:10:50.969Z,30.60
2022-08-12T01:13:20.489Z,30.50
2022-08-12T01:15:50.415Z,30.50
2022-08-12T01:18:18.785Z,30.40
2022-08-12T01:20:50.029Z,30.40
2022-08-12T01:23:40.859Z,30.40
2022-08-12T01:26:11.906Z,30.40
2022-08-12T01:28:39.878Z,30.30
2022-08-12T01:31:07.984Z,30.30
2022-08-12T01:33:38.976Z,30.30
2022-08-12T01:36:08.663Z,30.30
2022-08-12T01:38:37.143Z,30.20
2022-08-12T01:41:05.658Z,30.20
2022-08-12T01:43:35.208Z,30.10
2022-08-12T01:46:07.553Z,30.10
2022-08-12T01:49:01.310Z,30.10
2022-08-12T01:52:21.351Z,30.10
2022-08-12T01:54:28.995Z,30.00
2022-08-12T01:56:59.713Z,30.00
2022-08-12T01:59:50.032Z,29.90
2022-08-12T02:02:19.044Z,29.90
2022-08-12T02:05:22.608Z,29.90
2022-08-12T02:08:14.109Z,29.90
2022-08-12T02:11:07.832Z,29.80
2022-08-12T02:13:49.478Z,29.80
2022-08-12T02:16:30.382Z,29.70
2022-08-12T02:19:14.367Z,29.70
2022-08-12T02:21:53.521Z,29.70
2022-08-12T02:24:22.146Z,29.70
2022-08-12T02:26:52.429Z,29.60
2022-08-12T02:29:20.695Z,29.60
2022-08-12T02:31:49.761Z,29.60
2022-08-12T02:34:17.677Z,29.60
2022-08-12T02:36:45.784Z,29.50
2022-08-12T02:39:15.353Z,29.50
2022-08-12T02:41:44.634Z,29.50
2022-08-12T02:44:12.684Z,29.50
2022-08-12T02:46:40.400Z,29.40
2022-08-12T02:49:12.680Z,29.40
2022-08-12T02:51:41.406Z,29.40
2022-08-12T02:54:09.768Z,29.30
2022-08-12T02:56:40.909Z,29.30
2022-08-12T02:59:10.617Z,29.30
2022-08-12T03:01:47.914Z,29.20
2022-08-12T03:04:20.894Z,29.20
2022-08-12T03:06:52.597Z,29.20
2022-08-12T03:09:21.572Z,29.20
2022-08-12T03:11:56.327Z,29.10
2022-08-12T03:14:27.899Z,29.10
2022-08-12T03:16:59.069Z,29.10
2022-08-12T03:19:31.094Z,29.00
2022-08-12T03:22:13.012Z,29.00
2022-08-12T03:24:44.755Z,29.00
2022-08-12T03:27:14.053Z,29.00
2022-08-12T03:29:50.153Z,28.90
2022-08-12T03:32:35.546Z,28.90
2022-08-12T03:35:07.921Z,28.90
2022-08-12T03:37:36.819Z,28.80
2022-08-12T03:40:05.572Z,28.80
2022-08-12T03:42:35.279Z,28.80
2022-08-12T03:45:31.120Z,28.80
2022-08-12T03:48:18.967Z,28.80
2022-08-12T03:51:06.627Z,28.70
2022-08-12T03:53:52.010Z,28.70
2022-08-12T03:56:37.697Z,28.60
2022-08-12T03:59:24.490Z,28.60
2022-08-12T04:01:57.876Z,28.60
2022-08-12T04:04:26.793Z,28.50
2022-08-12T04:06:56.494Z,28.50
2022-08-12T04:09:24.606Z,28.50
2022-08-12T04:12:10.099Z,28.50
2022-08-12T04:14:38.144Z,28.50
2022-08-12T04:17:06.262Z,28.40
2022-08-12T04:19:34.330Z,28.40
2022-08-12T04:22:03.980Z,28.40
2022-08-12T04:24:34.588Z,28.40
2022-08-12T04:27:02.816Z,28.40
2022-08-12T04:30:17.010Z,28.30
2022-08-12T04:32:18.734Z,28.30
2022-08-12T04:34:46.733Z,28.30
2022-08-12T04:37:17.000Z,28.30
2022-08-12T04:39:45.368Z,28.30
2022-08-12T04:42:13.497Z,28.30
2022-08-12T04:44:42.404Z,28.30
2022-08-12T04:47:12.113Z,28.20
2022-08-12T04:49:40.706Z,28.20
2022-08-12T04:52:08.545Z,28.20
2022-08-12T04:54:37.861Z,28.20
2022-08-12T04:57:09.346Z,28.20
2022-08-12T04:59:46.918Z,28.20
2022-08-12T05:02:21.184Z,28.20
2022-08-12T05:04:50.770Z,28.20
2022-08-12T05:07:18.841Z,28.10
2022-08-12T05:09:59.047Z,28.10
2022-08-12T05:12:27.720Z,28.10
2022-08-12T05:14:55.991Z,28.10
2022-08-12T05:17:28.304Z,28.10
2022-08-12T05:19:57.417Z,28.10
2022-08-12T05:22:26.527Z,28.10
2022-08-12T05:24:56.013Z,28.10
2022-08-12T05:27:23.932Z,28.10
2022-08-12T05:30:07.787Z,28.00
2022-08-12T05:32:37.250Z,28.10
2022-08-12T05:35:08.175Z,28.10
2022-08-12T05:37:36.251Z,28.00
2022-08-12T05:40:10.922Z,28.00
2022-08-12T05:42:39.479Z,28.00
2022-08-12T05:45:08.495Z,28.00
2022-08-12T05:47:36.667Z,28.00
2022-08-12T05:50:21.301Z,28.00
2022-08-12T05:52:49.309Z,27.90
2022-08-12T05:55:25.871Z,27.90
2022-08-12T05:57:56.348Z,27.90
2022-08-12T06:00:25.740Z,27.90
2022-08-12T06:03:01.200Z,27.90
2022-08-12T06:05:29.846Z,27.90
2022-08-12T06:08:01.857Z,27.90
2022-08-12T06:10:33.127Z,28.00
2022-08-12T06:13:02.522Z,28.00
2022-08-12T06:15:30.887Z,28.00
2022-08-12T06:18:14.028Z,28.10
2022-08-12T06:20:44.574Z,28.20
2022-08-12T06:23:12.878Z,28.20
2022-08-12T06:25:42.216Z,28.20
2022-08-12T06:28:17.421Z,28.20
2022-08-12T06:30:57.333Z,28.30
2022-08-12T06:33:55.453Z,28.40
2022-08-12T06:36:21.757Z,28.40
2022-08-12T06:38:49.747Z,28.50
2022-08-12T06:41:36.555Z,28.60
2022-08-12T06:57:02.965Z,28.80
2022-08-12T06:59:27.708Z,29.10
2022-08-12T07:01:55.829Z,29.10
2022-08-12T07:04:39.568Z,29.20
2022-08-12T07:07:08.453Z,29.30
2022-08-12T07:10:03.764Z,29.40
2022-08-12T07:12:27.991Z,29.50
2022-08-12T07:15:04.847Z,29.70
2022-08-12T07:17:36.580Z,29.90
2022-08-12T07:20:06.284Z,30.10
2022-08-12T07:22:34.587Z,30.30
2022-08-12T07:25:19.872Z,30.50
2022-08-12T07:27:53.633Z,30.60
2022-08-12T07:30:21.608Z,30.80
2022-08-12T07:32:51.542Z,30.90
2022-08-12T07:35:20.543Z,31.10
2022-08-12T07:37:50.444Z,31.20
2022-08-12T07:40:18.806Z,31.40
2022-08-12T07:42:49.903Z,31.50
2022-08-12T07:45:19.511Z,31.70
2022-08-12T07:47:47.636Z,31.80
2022-08-12T07:50:22.976Z,32.00
2022-08-12T07:52:51.673Z,32.10
2022-08-12T07:55:19.679Z,32.20
2022-08-12T07:57:55.922Z,32.40
2022-08-12T08:00:23.954Z,32.50
2022-08-12T08:02:54.430Z,32.60
2022-08-12T08:05:23.732Z,32.80
2022-08-12T08:07:53.360Z,33.00
2022-08-12T08:10:21.698Z,33.20
2022-08-12T08:12:57.706Z,33.30
2022-08-12T08:15:51.105Z,33.40
2022-08-12T08:18:26.707Z,33.50
2022-08-12T08:20:55.975Z,33.80
2022-08-12T08:23:56.346Z,33.90
2022-08-12T08:26:27.887Z,34.10
2022-08-12T08:28:59.706Z,34.30
2022-08-12T08:31:28.051Z,34.40
2022-08-12T08:34:09.214Z,34.60
2022-08-12T08:36:45.406Z,34.70
2022-08-12T08:39:14.893Z,34.90
2022-08-12T08:42:15.532Z,35.00
2022-08-12T08:44:49.699Z,35.10
2022-08-12T08:47:25.968Z,35.20
2022-08-12T08:49:54.289Z,35.40
2022-08-12T08:52:38.859Z,35.50
2022-08-12T08:55:09.832Z,35.60
2022-08-12T08:57:43.741Z,35.80
2022-08-12T09:00:15.798Z,36.00
2022-08-12T09:02:49.059Z,36.10
2022-08-12T09:05:27.185Z,36.30
2022-08-12T09:08:12.245Z,36.40
2022-08-12T09:10:45.223Z,36.60
2022-08-12T09:13:29.126Z,36.70
2022-08-12T09:16:19.986Z,36.90
2022-08-12T09:18:52.420Z,37.10
2022-08-12T09:21:26.136Z,37.30
2022-08-12T09:24:06.251Z,37.40
2022-08-12T09:30:11.535Z,37.80
2022-08-12T09:32:57.018Z,37.90
2022-08-12T09:35:03.344Z,38.10
2022-08-12T09:37:55.115Z,38.40
2022-08-12T09:42:07.369Z,38.50
2022-08-12T09:43:26.071Z,38.60
2022-08-12T09:46:06.731Z,38.90
2022-08-12T09:48:55.781Z,39.10
2022-08-12T09:51:37.807Z,39.30
2022-08-12T09:54:30.644Z,39.40
2022-08-12T09:57:01.848Z,39.50
2022-08-12T10:00:15.573Z,39.80
2022-08-12T10:02:42.895Z,40.00
2022-08-12T10:05:13.414Z,40.10
2022-08-12T10:07:45.608Z,40.40
2022-08-12T10:10:23.007Z,40.60
2022-08-12T10:13:12.751Z,40.70
2022-08-12T10:16:02.205Z,40.90
2022-08-12T10:18:35.414Z,41.10
2022-08-12T10:21:08.504Z,41.40
2022-08-12T10:23:40.288Z,41.50
2022-08-12T10:26:37.400Z,41.70
2022-08-12T10:30:03.473Z,41.90
2022-08-12T10:32:20.493Z,42.10
2022-08-12T10:34:53.742Z,42.40
2022-08-12T10:38:36.337Z,42.50
2022-08-12T10:40:20.429Z,42.70
2022-08-12T10:43:07.424Z,43.00
2022-08-12T10:45:38.469Z,43.10
2022-08-12T10:48:20.985Z,43.30
2022-08-12T10:51:01.539Z,43.50
2022-08-12T10:53:44.182Z,43.80
2022-08-12T10:56:15.381Z,43.90
2022-08-12T10:58:46.873Z,44.10
2022-08-12T11:04:14.142Z,44.30
2022-08-12T11:04:23.173Z,44.50
2022-08-12T11:07:09.659Z,44.70
2022-08-12T11:10:00.574Z,45.00
2022-08-12T11:12:55.298Z,45.20
2022-08-12T11:15:32.742Z,45.30
2022-08-12T11:18:11.836Z,45.50
2022-08-12T11:20:47.542Z,45.80
2022-08-12T11:23:25.440Z,46.10
2022-08-12T11:26:06.570Z,46.90
2022-08-12T11:28:37.144Z,48.00
2022-08-12T11:31:06.549Z,49.10
2022-08-12T11:34:06.139Z,50.20
2022-08-12T11:36:22.593Z,51.10
2022-08-12T11:38:51.308Z,51.90
2022-08-12T11:41:31.018Z,52.70
2022-08-12T11:44:30.687Z,53.50
2022-08-12T11:46:51.420Z,54.10
2022-08-12T11:49:32.461Z,54.50
2022-08-12T11:52:02.202Z,55.00
2022-08-12T11:54:30.729Z,55.30
2022-08-12T11:57:02.302Z,55.60
2022-08-12T12:02:20.506Z,56.20
2022-08-12T12:04:52.212Z,56.40
2022-08-12T12:07:21.129Z,56.60
2022-08-12T12:09:52.269Z,56.60
2022-08-12T12:12:23.371Z,56.90
2022-08-12T12:14:54.938Z,57.10
2022-08-12T12:17:24.038Z,57.40
2022-08-12T12:19:53.163Z,57.50
2022-08-12T12:22:23.451Z,58.00
2022-08-12T12:24:58.692Z,58.30
2022-08-12T12:28:03.722Z,58.50
2022-08-12T12:30:29.215Z,58.50
2022-08-12T12:32:57.868Z,58.70
2022-08-12T12:36:06.061Z,58.90
2022-08-12T12:38:14.263Z,59.00
2022-08-12T12:40:44.065Z,58.90
2022-08-12T12:43:13.914Z,58.90
2022-08-12T12:45:44.366Z,58.90
2022-08-12T12:48:15.068Z,59.00
2022-08-12T12:50:45.541Z,59.00
2022-08-12T12:54:07.522Z,59.20
2022-08-12T12:56:06.879Z,59.20
2022-08-12T12:58:36.056Z,59.30
2022-08-12T13:01:04.514Z,59.40
2022-08-12T13:03:54.189Z,59.50
2022-08-12T13:06:25.562Z,59.40
2022-08-12T13:09:03.129Z,59.30
2022-08-12T13:11:41.592Z,59.30
2022-08-12T13:14:28.646Z,59.40
2022-08-12T13:17:00.201Z,59.30
2022-08-12T13:19:37.792Z,59.20
2022-08-12T13:34:52.674Z,57.30
2022-08-12T13:37:44.009Z,51.30
2022-08-12T13:40:19.775Z,50.80
2022-08-12T13:42:48.905Z,50.80
2022-08-12T13:45:19.050Z,50.60
2022-08-12T13:47:55.824Z,50.70
2022-08-12T13:50:32.572Z,50.80
2022-08-12T13:53:23.469Z,51.00
2022-08-12T13:55:59.533Z,51.00
2022-08-12T13:58:30.117Z,51.00
2022-08-12T14:00:58.654Z,51.00
2022-08-12T14:03:27.966Z,51.00
2022-08-12T14:06:04.488Z,51.00
2022-08-12T14:08:34.755Z,51.00
2022-08-12T14:11:02.949Z,51.00
2022-08-12T14:14:05.306Z,50.90
2022-08-12T14:16:37.683Z,50.80
2022-08-12T14:19:22.500Z,50.70
2022-08-12T14:22:00.974Z,50.50
2022-08-12T14:24:35.674Z,50.30
2022-08-12T14:27:09.057Z,50.10
2022-08-12T14:30:05.685Z,49.90
2022-08-12T14:32:34.579Z,49.80
2022-08-12T14:35:04.060Z,49.60
2022-08-12T14:37:57.279Z,49.40
2022-08-12T14:40:25.952Z,49.10
2022-08-12T14:42:56.856Z,49.00
2022-08-12T14:45:37.158Z,48.90
2022-08-12T14:48:14.874Z,48.80
2022-08-12T14:51:03.200Z,48.60
2022-08-12T14:59:57.131Z,48.10
2022-08-12T15:02:20.753Z,47.80
2022-08-12T15:04:51.201Z,47.70
2022-08-12T15:07:33.867Z,47.50
2022-08-12T15:10:09.438Z,47.40
2022-08-12T15:12:40.524Z,47.20
2022-08-12T15:15:10.454Z,47.00
2022-08-12T15:17:40.333Z,46.80
2022-08-12T15:20:31.791Z,46.70
2022-08-12T15:22:57.944Z,46.50
2022-08-12T15:25:27.812Z,46.30
2022-08-12T15:28:03.726Z,46.20
2022-08-12T15:30:33.909Z,46.00
2022-08-12T15:33:03.212Z,45.80
2022-08-12T15:35:52.146Z,45.70
2022-08-12T15:38:21.871Z,45.50
2022-08-12T15:40:54.179Z,45.40
2022-08-12T15:43:51.068Z,45.20
2022-08-12T15:46:15.226Z,45.10
2022-08-12T15:48:46.814Z,44.90
2022-08-12T15:51:27.893Z,44.80
2022-08-12T15:54:34.015Z,44.70
2022-08-12T15:57:08.207Z,44.50
2022-08-12T16:00:00.563Z,44.30
2022-08-12T16:02:30.097Z,44.20
2022-08-12T16:04:58.511Z,44.00
2022-08-12T16:07:31.169Z,43.90
2022-08-12T16:10:08.645Z,43.80
2022-08-12T16:12:43.695Z,43.60
2022-08-12T16:15:23.425Z,43.50
2022-08-12T16:18:15.080Z,43.30
2022-08-12T16:20:41.523Z,43.10
2022-08-12T16:23:26.355Z,43.10
2022-08-12T16:26:05.648Z,43.00
2022-08-12T16:28:35.676Z,42.80
2022-08-12T16:31:03.624Z,42.70
2022-08-12T16:33:35.957Z,42.60
2022-08-12T16:36:25.654Z,42.50
2022-08-12T16:38:53.666Z,42.30
2022-08-12T16:41:22.835Z,42.20
2022-08-12T16:43:53.520Z,42.20
2022-08-12T16:46:31.333Z,42.00
2022-08-12T16:49:04.274Z,41.90
2022-08-12T16:51:46.118Z,41.80
2022-08-12T16:54:18.259Z,41.70
2022-08-12T16:56:55.507Z,41.60
2022-08-12T16:59:52.833Z,41.50
2022-08-12T17:02:18.054Z,41.40
2022-08-12T17:05:01.026Z,41.30
2022-08-12T17:07:36.834Z,41.20
2022-08-12T17:10:06.603Z,41.10
2022-08-12T17:12:37.652Z,41.10
2022-08-12T17:15:50.639Z,41.00
2022-08-12T17:18:42.511Z,40.90
2022-08-12T17:20:47.461Z,40.80
2022-08-12T17:23:16.099Z,40.70
2022-08-12T17:25:45.323Z,40.70
2022-08-12T17:28:16.884Z,40.60
2022-08-12T17:30:57.281Z,40.50
2022-08-12T17:33:34.643Z,40.50
2022-08-12T17:36:05.759Z,40.40
2022-08-12T17:38:35.079Z,40.30
2022-08-12T17:41:22.283Z,40.30
2022-08-12T17:43:58.206Z,40.20
2022-08-12T17:46:33.065Z,40.10
2022-08-12T17:49:18.891Z,40.00
2022-08-12T17:52:02.260Z,39.90
2022-08-12T17:54:31.375Z,39.90
2022-08-12T17:57:01.328Z,39.80
2022-08-12T17:59:48.971Z,39.80
2022-08-12T18:02:25.582Z,39.70
2022-08-12T18:05:05.325Z,39.60
2022-08-12T18:07:35.665Z,39.60
2022-08-12T18:10:04.969Z,39.50
2022-08-12T18:12:42.760Z,39.40
2022-08-12T18:15:26.267Z,39.30
2022-08-12T18:18:00.183Z,39.30
2022-08-12T18:20:29.065Z,39.20
2022-08-12T18:22:59.546Z,39.10
2022-08-12T18:26:13.862Z,39.00
2022-08-12T18:28:40.356Z,39.00
2022-08-12T18:31:08.782Z,38.90
2022-08-12T18:33:41.734Z,38.80
2022-08-12T18:36:13.238Z,38.80
2022-08-12T18:38:41.428Z,38.70
2022-08-12T18:41:34.351Z,38.60
2022-08-12T18:44:08.101Z,38.50
2022-08-12T18:46:53.946Z,38.50
2022-08-12T18:49:31.894Z,38.40
2022-08-12T18:52:04.777Z,38.30
2022-08-12T18:54:35.913Z,38.20
2022-08-12T18:57:16.399Z,38.10
2022-08-12T18:59:59.775Z,38.10
2022-08-12T19:02:36.516Z,38.00
2022-08-12T19:05:11.258Z,37.90
2022-08-12T19:07:49.212Z,37.90
2022-08-12T19:10:28.545Z,37.80
2022-08-12T19:13:21.126Z,37.70
2022-08-12T19:15:54.400Z,37.70
2022-08-12T19:18:24.482Z,37.60
2022-08-12T19:20:59.184Z,37.50
2022-08-12T19:23:35.408Z,37.50
2022-08-12T19:26:03.181Z,37.40
2022-08-12T19:28:34.454Z,37.30
2022-08-12T19:31:45.131Z,37.30
2022-08-12T19:35:24.097Z,37.20
2022-08-12T19:37:17.168Z,37.10
2022-08-12T19:40:09.310Z,37.10
2022-08-12T19:42:33.696Z,37.00
2022-08-12T19:45:05.172Z,36.90
2022-08-12T19:47:39.302Z,36.90
2022-08-12T19:50:11.056Z,36.80
2022-08-12T19:52:41.817Z,36.80
2022-08-12T19:55:11.537Z,36.70
2022-08-12T19:58:02.791Z,36.70
2022-08-12T20:00:34.431Z,36.60
2022-08-12T20:03:04.531Z,36.50
2022-08-12T20:06:04.940Z,36.40
2022-08-12T20:08:32.894Z,36.40
2022-08-12T20:12:12.526Z,36.30
2022-08-12T20:14:01.357Z,36.30
2022-08-12T20:16:57.127Z,36.20
2022-08-12T20:19:28.569Z,36.10
2022-08-12T20:22:14.900Z,36.10
2022-08-12T20:24:55.411Z,36.00
2022-08-12T20:27:29.557Z,35.90
2022-08-12T20:30:14.118Z,35.90
2022-08-12T20:32:51.586Z,35.80
2022-08-12T20:35:24.378Z,35.70
2022-08-12T20:38:07.527Z,35.70
2022-08-12T20:40:47.906Z,35.60
2022-08-12T20:43:18.949Z,35.50
2022-08-12T20:45:57.215Z,35.50
2022-08-12T20:48:29.289Z,35.50
2022-08-12T20:51:04.243Z,35.40
2022-08-12T20:53:57.869Z,35.30
2022-08-12T20:56:30.692Z,35.30
2022-08-12T20:59:01.069Z,35.20
2022-08-12T21:01:47.224Z,35.10
2022-08-12T21:04:33.953Z,35.10
2022-08-12T21:07:08.584Z,35.00
2022-08-12T21:09:41.104Z,34.90
2022-08-12T21:12:30.996Z,34.90
2022-08-12T21:15:23.596Z,34.90
2022-08-12T21:18:00.545Z,34.80
2022-08-12T21:20:37.002Z,34.80
2022-08-12T21:23:06.394Z,34.70
2022-08-12T21:25:36.333Z,34.70
2022-08-12T21:28:19.035Z,34.60
2022-08-12T21:31:10.611Z,34.60
2022-08-12T21:33:58.575Z,34.60
2022-08-12T21:36:34.281Z,34.50
2022-08-12T21:39:20.446Z,34.50
2022-08-12T21:41:51.071Z,34.50
2022-08-12T21:44:24.271Z,34.40
2022-08-12T21:47:20.097Z,34.30
2022-08-12T21:50:03.012Z,34.30
2022-08-12T21:52:35.786Z,34.30
2022-08-12T21:55:08.360Z,34.30
2022-08-12T21:57:50.975Z,34.20
2022-08-12T22:00:32.123Z,34.10
2022-08-12T22:03:30.376Z,34.10
2022-08-12T22:06:25.883Z,34.10
2022-08-12T22:09:02.112Z,34.00
2022-08-12T22:11:41.659Z,34.00
2022-08-12T22:14:21.453Z,33.90
2022-08-12T22:16:52.614Z,33.90
2022-08-12T22:19:21.497Z,33.80
2022-08-12T22:21:53.789Z,33.80
2022-08-12T22:24:27.032Z,33.80
2022-08-12T22:26:58.421Z,33.80
2022-08-12T22:29:40.317Z,33.70
2022-08-12T22:32:11.972Z,33.70
2022-08-12T22:34:40.201Z,33.60
2022-08-12T22:37:19.943Z,33.60
2022-08-12T22:39:49.072Z,33.60
2022-08-12T22:42:35.263Z,33.50
2022-08-12T22:45:23.230Z,33.50
2022-08-12T22:47:54.678Z,33.40
2022-08-12T22:50:27.828Z,33.40
2022-08-12T22:53:14.949Z,33.30
2022-08-12T22:55:59.639Z,33.30
2022-08-12T22:58:33.671Z,33.30
2022-08-12T23:01:03.478Z,33.20
2022-08-12T23:03:48.751Z,33.10
2022-08-12T23:06:20.139Z,33.10
2022-08-12T23:08:48.473Z,33.10
2022-08-12T23:11:17.960Z,33.10
2022-08-12T23:13:55.457Z,33.00
2022-08-12T23:16:29.410Z,33.00
2022-08-12T23:19:10.543Z,32.90
2022-08-12T23:22:05.239Z,32.90
2022-08-12T23:24:40.979Z,32.80
2022-08-12T23:27:50.198Z,32.80
2022-08-12T23:30:18.741Z,32.80
2022-08-12T23:32:54.794Z,32.70
2022-08-12T23:35:53.569Z,32.70
2022-08-12T23:38:30.368Z,32.70
2022-08-12T23:41:00.954Z,32.60
2022-08-12T23:43:39.997Z,32.60
2022-08-12T23:46:09.752Z,32.60
2022-08-12T23:48:38.605Z,32.50
2022-08-12T23:51:23.678Z,32.50
2022-08-12T23:53:55.062Z,32.40
2022-08-12T23:56:23.934Z,32.40
2022-08-12T23:58:53.829Z,32.40
